sensor_id;sensor_type;location;lat;lon;timestamp;pressure;altitude;pressure_sealevel;temperature;humidity
29879;BME280;16752;53.364;-1.488;2023-03-19T00:02:26;99627.75;;;14.28;41.96
29879;BME280;16752;53.364;-1.488;2023-03-19T00:05:20;99633.31;;;14.82;40.69
29879;BME280;16752;53.364;-1.488;2023-03-19T00:08:14;99702.94;;;14.98;41.35
29879;BME280;16752;53.364;-1.488;2023-03-19T00:11:10;99613.44;;;14.41;40.81
29879;BME280;16752;53.364;-1.488;2023-03-19T00:13:57;99716.81;;;13.96;42.67
29879;BME280;16752;53.364;-1.488;2023-03-19T00:16:44;99753.91;;;14.80;41.69
29879;BME280;16752;53.364;-1.488;2023-03-19T00:19:30;99754.06;;;14.30;42.94
29879;BME280;16752;53.364;-1.488;2023-03-19T00:22:18;99676.56;;;13.65;41.75
29879;BME280;16752;53.364;-1.488;2023-03-19T00:25:06;99584.06;;;12.81;42.89
29879;BME280;16752;53.364;-1.488;2023-03-19T00:28:03;99613.53;;;13.34;42.21
29879;BME280;16752;53.364;-1.488;2023-03-19T00:30:52;99728.69;;;14.10;42.18
29879;BME280;16752;53.364;-1.488;2023-03-19T00:33:42;99606.66;;;13.72;41.83
29879;BME280;16752;53.364;-1.488;2023-03-19T00:36:31;99617.25;;;13.22;42.58
29879;BME280;16752;53.364;-1.488;2023-03-19T00:39:18;99683.00;;;13.22;43.27
29879;BME280;16752;53.364;-1.488;2023-03-19T00:42:07;99740.06;;;14.29;41.62
29879;BME280;16752;53.364;-1.488;2023-03-19T00:44:52;99731.34;;;14.38;41.50
29879;BME280;16752;53.364;-1.488;2023-03-19T00:47:36;99677.59;;;13.93;41.45
29879;BME280;16752;53.364;-1.488;2023-03-19T00:50:23;99701.34;;;13.03;43.28
29879;BME280;16752;53.364;-1.488;2023-03-19T00:53:08;99777.56;;;13.64;43.48
29879;BME280;16752;53.364;-1.488;2023-03-19T00:55:52;99733.44;;;12.76;44.33
29879;BME280;16752;53.364;-1.488;2023-03-19T00:58:42;99797.47;;;14.26;43.29
29879;BME280;16752;53.364;-1.488;2023-03-19T01:01:29;99762.56;;;14.43;41.22
29879;BME280;16752;53.364;-1.488;2023-03-19T01:04:13;99747.88;;;13.12;44.02
29879;BME280;16752;53.364;-1.488;2023-03-19T01:06:58;99706.81;;;13.80;41.99
29879;BME280;16752;53.364;-1.488;2023-03-19T01:09:42;99730.69;;;13.38;42.55
29879;BME280;16752;53.364;-1.488;2023-03-19T01:12:27;99712.50;;;14.04;41.28
29879;BME280;16752;53.364;-1.488;2023-03-19T01:15:15;99825.50;;;14.27;42.11
29879;BME280;16752;53.364;-1.488;2023-03-19T01:18:07;99733.28;;;13.79;42.27
29879;BME280;16752;53.364;-1.488;2023-03-19T01:20:51;99682.72;;;13.94;41.15
29879;BME280;16752;53.364;-1.488;2023-03-19T01:23:35;99755.19;;;13.98;42.34
29879;BME280;16752;53.364;-1.488;2023-03-19T01:26:19;99681.28;;;14.10;41.19
29879;BME280;16752;53.364;-1.488;2023-03-19T01:29:11;99802.00;;;15.11;40.26
29879;BME280;16752;53.364;-1.488;2023-03-19T01:31:54;99814.94;;;14.27;41.52
29879;BME280;16752;53.364;-1.488;2023-03-19T01:34:46;99695.03;;;14.03;40.35
29879;BME280;16752;53.364;-1.488;2023-03-19T01:37:35;99706.25;;;13.76;40.66
29879;BME280;16752;53.364;-1.488;2023-03-19T01:40:28;99752.41;;;14.10;41.55
29879;BME280;16752;53.364;-1.488;2023-03-19T01:43:18;99814.72;;;14.78;40.39
29879;BME280;16752;53.364;-1.488;2023-03-19T01:46:18;99724.41;;;13.99;41.10
29879;BME280;16752;53.364;-1.488;2023-03-19T01:49:10;99796.38;;;14.19;40.85
29879;BME280;16752;53.364;-1.488;2023-03-19T01:52:15;99829.66;;;14.29;42.01
29879;BME280;16752;53.364;-1.488;2023-03-19T01:55:10;99686.50;;;13.32;42.14
29879;BME280;16752;53.364;-1.488;2023-03-19T01:57:56;99765.22;;;14.43;41.46
29879;BME280;16752;53.364;-1.488;2023-03-19T02:00:44;99756.00;;;13.80;41.65
29879;BME280;16752;53.364;-1.488;2023-03-19T02:03:28;99650.69;;;12.70;42.89
29879;BME280;16752;53.364;-1.488;2023-03-19T02:06:17;99746.19;;;14.20;41.66
29879;BME280;16752;53.364;-1.488;2023-03-19T02:09:14;99715.53;;;14.38;40.73
29879;BME280;16752;53.364;-1.488;2023-03-19T02:12:09;99705.63;;;13.44;42.93
29879;BME280;16752;53.364;-1.488;2023-03-19T02:15:02;99676.88;;;14.20;40.60
29879;BME280;16752;53.364;-1.488;2023-03-19T02:18:03;99627.44;;;13.06;42.50
29879;BME280;16752;53.364;-1.488;2023-03-19T02:26:59;99723.34;;;13.02;44.48
29879;BME280;16752;53.364;-1.488;2023-03-19T02:29:44;99686.69;;;12.79;44.89
29879;BME280;16752;53.364;-1.488;2023-03-19T02:32:36;99755.06;;;13.90;43.47
29879;BME280;16752;53.364;-1.488;2023-03-19T02:35:30;99741.53;;;13.55;43.84
29879;BME280;16752;53.364;-1.488;2023-03-19T02:38:16;99833.16;;;14.68;42.45
29879;BME280;16752;53.364;-1.488;2023-03-19T02:41:06;99737.19;;;13.44;43.72
29879;BME280;16752;53.364;-1.488;2023-03-19T02:43:53;99798.88;;;14.11;43.61
29879;BME280;16752;53.364;-1.488;2023-03-19T02:46:38;99733.72;;;13.34;44.11
29879;BME280;16752;53.364;-1.488;2023-03-19T02:49:22;99748.38;;;13.86;42.78
29879;BME280;16752;53.364;-1.488;2023-03-19T02:52:19;99853.88;;;13.54;44.39
29879;BME280;16752;53.364;-1.488;2023-03-19T02:55:06;99754.00;;;13.53;43.77
29879;BME280;16752;53.364;-1.488;2023-03-19T02:57:51;99764.31;;;13.85;42.89
29879;BME280;16752;53.364;-1.488;2023-03-19T03:00:41;99857.97;;;14.37;43.14
29879;BME280;16752;53.364;-1.488;2023-03-19T03:03:42;99764.81;;;13.19;43.92
29879;BME280;16752;53.364;-1.488;2023-03-19T03:06:26;99709.06;;;13.25;43.54
29879;BME280;16752;53.364;-1.488;2023-03-19T03:09:22;99712.28;;;13.08;43.96
29879;BME280;16752;53.364;-1.488;2023-03-19T03:12:07;99766.19;;;12.93;45.41
29879;BME280;16752;53.364;-1.488;2023-03-19T03:14:56;99871.34;;;13.95;44.07
29879;BME280;16752;53.364;-1.488;2023-03-19T03:17:46;99874.25;;;14.61;43.42
29879;BME280;16752;53.364;-1.488;2023-03-19T03:20:33;99787.16;;;13.34;44.81
29879;BME280;16752;53.364;-1.488;2023-03-19T03:23:18;99872.75;;;12.97;46.40
29879;BME280;16752;53.364;-1.488;2023-03-19T03:26:02;99744.59;;;13.20;43.97
29879;BME280;16752;53.364;-1.488;2023-03-19T03:28:57;99875.44;;;14.38;43.62
29879;BME280;16752;53.364;-1.488;2023-03-19T03:31:44;99747.00;;;13.32;44.41
29879;BME280;16752;53.364;-1.488;2023-03-19T03:34:28;99893.16;;;14.17;44.16
29879;BME280;16752;53.364;-1.488;2023-03-19T03:37:15;99894.97;;;14.26;43.79
29879;BME280;16752;53.364;-1.488;2023-03-19T03:40:03;99833.91;;;13.92;43.64
29879;BME280;16752;53.364;-1.488;2023-03-19T03:42:53;99789.47;;;13.58;43.74
29879;BME280;16752;53.364;-1.488;2023-03-19T03:45:47;99759.19;;;13.33;44.28
29879;BME280;16752;53.364;-1.488;2023-03-19T03:48:31;99711.06;;;12.81;44.28
29879;BME280;16752;53.364;-1.488;2023-03-19T03:51:17;99815.06;;;12.10;46.87
29879;BME280;16752;53.364;-1.488;2023-03-19T03:54:02;99707.97;;;12.76;44.71
29879;BME280;16752;53.364;-1.488;2023-03-19T03:56:46;99830.94;;;13.75;43.72
29879;BME280;16752;53.364;-1.488;2023-03-19T03:59:35;99891.84;;;13.61;45.25
29879;BME280;16752;53.364;-1.488;2023-03-19T04:02:19;99831.88;;;13.34;45.54
29879;BME280;16752;53.364;-1.488;2023-03-19T04:05:05;99735.09;;;12.56;45.74
29879;BME280;16752;53.364;-1.488;2023-03-19T04:07:52;99892.78;;;13.51;45.93
29879;BME280;16752;53.364;-1.488;2023-03-19T04:10:40;99830.78;;;13.37;45.33
29879;BME280;16752;53.364;-1.488;2023-03-19T04:13:25;99761.00;;;12.81;45.15
29879;BME280;16752;53.364;-1.488;2023-03-19T04:16:12;99795.06;;;12.62;46.44
29879;BME280;16752;53.364;-1.488;2023-03-19T04:19:10;99804.47;;;13.06;45.66
29879;BME280;16752;53.364;-1.488;2023-03-19T04:21:57;99824.81;;;13.25;45.22
29879;BME280;16752;53.364;-1.488;2023-03-19T04:24:48;99860.28;;;13.40;45.23
29879;BME280;16752;53.364;-1.488;2023-03-19T04:27:43;99865.69;;;12.97;46.28
29879;BME280;16752;53.364;-1.488;2023-03-19T04:30:27;99806.75;;;13.21;44.87
29879;BME280;16752;53.364;-1.488;2023-03-19T04:33:30;99915.59;;;14.11;44.78
29879;BME280;16752;53.364;-1.488;2023-03-19T04:36:14;99929.84;;;14.08;45.01
29879;BME280;16752;53.364;-1.488;2023-03-19T04:39:00;99825.81;;;12.92;45.69
29879;BME280;16752;53.364;-1.488;2023-03-19T04:41:45;99832.59;;;12.95;45.67
29879;BME280;16752;53.364;-1.488;2023-03-19T04:44:29;99803.75;;;13.04;45.38
29879;BME280;16752;53.364;-1.488;2023-03-19T04:47:14;99850.03;;;13.37;45.35
29879;BME280;16752;53.364;-1.488;2023-03-19T04:49:58;99832.47;;;13.17;45.43
29879;BME280;16752;53.364;-1.488;2023-03-19T04:52:44;99952.72;;;13.68;45.69
29879;BME280;16752;53.364;-1.488;2023-03-19T04:55:31;99771.16;;;12.96;44.97
29879;BME280;16752;53.364;-1.488;2023-03-19T04:58:16;99851.81;;;12.53;46.95
29879;BME280;16752;53.364;-1.488;2023-03-19T05:01:03;99788.06;;;12.72;45.75
29879;BME280;16752;53.364;-1.488;2023-03-19T05:03:47;99867.88;;;13.13;46.04
29879;BME280;16752;53.364;-1.488;2023-03-19T05:06:32;99886.00;;;13.27;45.78
29879;BME280;16752;53.364;-1.488;2023-03-19T05:09:25;99911.69;;;13.44;45.56
29879;BME280;16752;53.364;-1.488;2023-03-19T05:12:10;99807.97;;;12.96;45.71
29879;BME280;16752;53.364;-1.488;2023-03-19T05:14:59;99961.06;;;13.52;46.31
29879;BME280;16752;53.364;-1.488;2023-03-19T05:17:43;99953.38;;;13.07;47.03
29879;BME280;16752;53.364;-1.488;2023-03-19T05:20:27;99935.03;;;13.17;46.92
29879;BME280;16752;53.364;-1.488;2023-03-19T05:23:23;99967.31;;;12.33;49.14
29879;BME280;16752;53.364;-1.488;2023-03-19T05:26:08;99981.84;;;13.34;46.80
29879;BME280;16752;53.364;-1.488;2023-03-19T05:28:52;99891.13;;;12.76;46.55
29879;BME280;16752;53.364;-1.488;2023-03-19T05:31:37;99896.69;;;13.14;46.38
29879;BME280;16752;53.364;-1.488;2023-03-19T05:34:21;99796.88;;;11.75;48.02
29879;BME280;16752;53.364;-1.488;2023-03-19T05:37:08;99888.16;;;13.22;45.52
29879;BME280;16752;53.364;-1.488;2023-03-19T05:39:53;99993.09;;;13.57;46.04
29879;BME280;16752;53.364;-1.488;2023-03-19T05:42:37;99991.78;;;13.72;46.03
29879;BME280;16752;53.364;-1.488;2023-03-19T05:45:23;99828.69;;;12.89;45.81
29879;BME280;16752;53.364;-1.488;2023-03-19T05:48:08;99893.13;;;12.08;48.08
29879;BME280;16752;53.364;-1.488;2023-03-19T05:50:52;99985.66;;;13.93;45.64
29879;BME280;16752;53.364;-1.488;2023-03-19T05:53:37;99912.25;;;12.85;46.86
29879;BME280;16752;53.364;-1.488;2023-03-19T05:56:21;99949.50;;;13.43;46.48
29879;BME280;16752;53.364;-1.488;2023-03-19T05:59:05;99849.19;;;12.74;46.08
29879;BME280;16752;53.364;-1.488;2023-03-19T06:01:49;99958.56;;;13.30;46.18
29879;BME280;16752;53.364;-1.488;2023-03-19T06:04:34;99934.88;;;12.98;45.97
29879;BME280;16752;53.364;-1.488;2023-03-19T06:07:18;99997.91;;;13.73;45.74
29879;BME280;16752;53.364;-1.488;2023-03-19T06:10:03;100013.47;;;13.86;45.28
29879;BME280;16752;53.364;-1.488;2023-03-19T06:12:47;99986.16;;;13.87;44.90
29879;BME280;16752;53.364;-1.488;2023-03-19T06:15:31;99927.63;;;13.22;45.22
29879;BME280;16752;53.364;-1.488;2023-03-19T06:18:16;99983.91;;;13.31;46.02
29879;BME280;16752;53.364;-1.488;2023-03-19T06:21:00;99862.94;;;12.46;46.00
29879;BME280;16752;53.364;-1.488;2023-03-19T06:23:44;99892.91;;;12.75;45.55
29879;BME280;16752;53.364;-1.488;2023-03-19T06:26:28;99963.44;;;13.34;45.37
29879;BME280;16752;53.364;-1.488;2023-03-19T06:29:12;99890.44;;;12.95;45.51
29879;BME280;16752;53.364;-1.488;2023-03-19T06:31:56;99952.03;;;13.13;45.78
29879;BME280;16752;53.364;-1.488;2023-03-19T06:34:43;99975.59;;;12.82;46.72
29879;BME280;16752;53.364;-1.488;2023-03-19T06:37:29;99960.22;;;13.31;45.54
29879;BME280;16752;53.364;-1.488;2023-03-19T06:40:14;100035.88;;;13.59;45.70
29879;BME280;16752;53.364;-1.488;2023-03-19T06:42:58;99958.94;;;13.25;45.32
29879;BME280;16752;53.364;-1.488;2023-03-19T06:45:42;100023.56;;;13.39;46.28
29879;BME280;16752;53.364;-1.488;2023-03-19T06:48:27;100053.22;;;14.03;45.29
29879;BME280;16752;53.364;-1.488;2023-03-19T06:51:11;99964.56;;;13.41;45.23
29879;BME280;16752;53.364;-1.488;2023-03-19T06:54:09;99900.44;;;13.01;45.12
29879;BME280;16752;53.364;-1.488;2023-03-19T06:57:06;100036.72;;;13.60;45.98
29879;BME280;16752;53.364;-1.488;2023-03-19T06:59:50;100079.38;;;13.42;46.70
29879;BME280;16752;53.364;-1.488;2023-03-19T07:02:34;100084.81;;;14.03;45.69
29879;BME280;16752;53.364;-1.488;2023-03-19T07:05:21;99942.91;;;13.28;44.96
29879;BME280;16752;53.364;-1.488;2023-03-19T07:08:10;99918.69;;;12.61;46.82
29879;BME280;16752;53.364;-1.488;2023-03-19T07:11:07;100105.09;;;14.33;45.17
29879;BME280;16752;53.364;-1.488;2023-03-19T07:14:11;99936.28;;;13.34;44.90
29879;BME280;16752;53.364;-1.488;2023-03-19T07:16:58;100070.38;;;14.28;44.71
29879;BME280;16752;53.364;-1.488;2023-03-19T07:19:42;100066.28;;;14.35;44.43
29879;BME280;16752;53.364;-1.488;2023-03-19T07:22:36;100108.88;;;14.61;44.87
29879;BME280;16752;53.364;-1.488;2023-03-19T07:25:23;99972.25;;;13.12;46.11
29879;BME280;16752;53.364;-1.488;2023-03-19T07:28:08;99989.84;;;13.95;44.60
29879;BME280;16752;53.364;-1.488;2023-03-19T07:30:53;100115.25;;;14.38;44.78
29879;BME280;16752;53.364;-1.488;2023-03-19T07:33:38;100045.50;;;14.12;44.28
29879;BME280;16752;53.364;-1.488;2023-03-19T07:36:25;100013.66;;;14.24;43.76
29879;BME280;16752;53.364;-1.488;2023-03-19T07:39:12;100056.34;;;14.18;43.95
29879;BME280;16752;53.364;-1.488;2023-03-19T07:42:11;100028.34;;;14.17;43.68
29879;BME280;16752;53.364;-1.488;2023-03-19T07:45:09;100041.88;;;14.33;43.22
29879;BME280;16752;53.364;-1.488;2023-03-19T07:47:57;100037.41;;;14.03;43.87
29879;BME280;16752;53.364;-1.488;2023-03-19T07:50:52;100082.78;;;14.58;42.74
29879;BME280;16752;53.364;-1.488;2023-03-19T07:53:40;99967.97;;;13.74;42.72
29879;BME280;16752;53.364;-1.488;2023-03-19T07:56:25;99974.88;;;13.24;43.67
29879;BME280;16752;53.364;-1.488;2023-03-19T07:59:09;100059.31;;;14.55;42.33
29879;BME280;16752;53.364;-1.488;2023-03-19T08:01:54;100104.28;;;15.13;42.14
29879;BME280;16752;53.364;-1.488;2023-03-19T08:04:39;100003.97;;;14.75;40.55
29879;BME280;16752;53.364;-1.488;2023-03-19T08:07:27;100015.53;;;14.93;40.42
29879;BME280;16752;53.364;-1.488;2023-03-19T08:10:35;100068.72;;;15.17;40.94
29879;BME280;16752;53.364;-1.488;2023-03-19T08:13:22;100009.00;;;14.78;41.05
29879;BME280;16752;53.364;-1.488;2023-03-19T08:16:06;100134.66;;;15.77;40.51
29879;BME280;16752;53.364;-1.488;2023-03-19T08:18:54;100193.19;;;15.92;41.15
29879;BME280;16752;53.364;-1.488;2023-03-19T08:21:38;100035.06;;;14.61;41.21
29879;BME280;16752;53.364;-1.488;2023-03-19T08:24:34;100064.44;;;15.55;39.98
29879;BME280;16752;53.364;-1.488;2023-03-19T08:27:27;100076.69;;;15.75;39.27
29879;BME280;16752;53.364;-1.488;2023-03-19T08:30:24;100113.50;;;16.53;38.46
29879;BME280;16752;53.364;-1.488;2023-03-19T08:33:45;100175.94;;;16.83;37.75
29879;BME280;16752;53.364;-1.488;2023-03-19T08:36:50;100062.66;;;15.84;38.96
29879;BME280;16752;53.364;-1.488;2023-03-19T08:39:36;100169.06;;;16.43;37.96
29879;BME280;16752;53.364;-1.488;2023-03-19T08:45:28;100039.69;;;14.79;40.37
29879;BME280;16752;53.364;-1.488;2023-03-19T08:48:13;100111.69;;;15.19;40.69
29879;BME280;16752;53.364;-1.488;2023-03-19T08:51:08;100054.59;;;16.33;38.04
29879;BME280;16752;53.364;-1.488;2023-03-19T08:53:53;100067.59;;;16.54;38.11
29879;BME280;16752;53.364;-1.488;2023-03-19T08:56:39;100209.25;;;17.58;37.50
29879;BME280;16752;53.364;-1.488;2023-03-19T08:59:23;100208.13;;;17.33;38.09
29879;BME280;16752;53.364;-1.488;2023-03-19T09:02:10;100223.41;;;17.66;35.93
29879;BME280;16752;53.364;-1.488;2023-03-19T09:05:03;100214.31;;;17.79;37.32
29879;BME280;16752;53.364;-1.488;2023-03-19T09:07:58;100218.94;;;17.22;37.75
29879;BME280;16752;53.364;-1.488;2023-03-19T09:11:03;100140.69;;;17.73;36.71
29879;BME280;16752;53.364;-1.488;2023-03-19T09:14:06;100201.00;;;18.32;35.68
29879;BME280;16752;53.364;-1.488;2023-03-19T09:17:07;100216.97;;;16.96;38.82
29879;BME280;16752;53.364;-1.488;2023-03-19T09:20:12;100172.50;;;17.27;36.74
29879;BME280;16752;53.364;-1.488;2023-03-19T09:26:26;100137.66;;;17.50;34.62
29879;BME280;16752;53.364;-1.488;2023-03-19T09:29:15;100156.50;;;18.00;35.17
29879;BME280;16752;53.364;-1.488;2023-03-19T09:32:05;100114.00;;;18.36;34.14
29879;BME280;16752;53.364;-1.488;2023-03-19T09:34:52;100216.03;;;18.23;36.08
29879;BME280;16752;53.364;-1.488;2023-03-19T09:37:47;100156.06;;;18.05;34.38
29879;BME280;16752;53.364;-1.488;2023-03-19T09:40:47;100160.50;;;18.74;32.91
29879;BME280;16752;53.364;-1.488;2023-03-19T09:44:03;100239.84;;;19.11;33.76
29879;BME280;16752;53.364;-1.488;2023-03-19T09:50:20;100174.09;;;18.71;33.87
29879;BME280;16752;53.364;-1.488;2023-03-19T09:57:03;100252.66;;;18.89;35.25
29879;BME280;16752;53.364;-1.488;2023-03-19T10:22:01;100132.66;;;18.52;34.05
29879;BME280;16752;53.364;-1.488;2023-03-19T10:25:10;100136.47;;;19.26;32.53
29879;BME280;16752;53.364;-1.488;2023-03-19T10:28:15;100288.56;;;20.69;31.06
29879;BME280;16752;53.364;-1.488;2023-03-19T10:31:28;100292.72;;;20.47;30.02
29879;BME280;16752;53.364;-1.488;2023-03-19T10:34:33;100217.84;;;19.77;33.13
29879;BME280;16752;53.364;-1.488;2023-03-19T10:45:04;100229.78;;;19.73;31.88
29879;BME280;16752;53.364;-1.488;2023-03-19T10:52:43;100317.50;;;20.39;29.60
29879;BME280;16752;53.364;-1.488;2023-03-19T10:55:30;100238.78;;;19.80;30.08
29879;BME280;16752;53.364;-1.488;2023-03-19T10:58:17;100310.34;;;20.48;29.42
29879;BME280;16752;53.364;-1.488;2023-03-19T11:01:15;100268.75;;;20.55;30.48
29879;BME280;16752;53.364;-1.488;2023-03-19T11:08:12;100322.78;;;21.68;29.21
29879;BME280;16752;53.364;-1.488;2023-03-19T11:15:34;100316.50;;;22.23;28.67
29879;BME280;16752;53.364;-1.488;2023-03-19T11:18:40;100274.16;;;22.80;29.17
29879;BME280;16752;53.364;-1.488;2023-03-19T11:21:32;100228.84;;;23.16;25.68
29879;BME280;16752;53.364;-1.488;2023-03-19T11:24:41;100245.75;;;23.02;26.00
29879;BME280;16752;53.364;-1.488;2023-03-19T11:27:36;100199.00;;;21.23;29.56
29879;BME280;16752;53.364;-1.488;2023-03-19T11:30:21;100273.94;;;21.37;29.27
29879;BME280;16752;53.364;-1.488;2023-03-19T11:33:20;100291.28;;;21.24;29.92
29879;BME280;16752;53.364;-1.488;2023-03-19T11:36:14;100304.41;;;21.42;30.98
29879;BME280;16752;53.364;-1.488;2023-03-19T11:39:12;100316.66;;;22.67;26.95
29879;BME280;16752;53.364;-1.488;2023-03-19T11:49:49;100309.69;;;23.48;25.25
29879;BME280;16752;53.364;-1.488;2023-03-19T11:52:22;100283.31;;;22.86;25.52
29879;BME280;16752;53.364;-1.488;2023-03-19T12:05:20;100316.84;;;20.86;28.79
29879;BME280;16752;53.364;-1.488;2023-03-19T12:20:45;100324.09;;;19.61;31.83
29879;BME280;16752;53.364;-1.488;2023-03-19T12:30:38;100227.00;;;19.99;29.37
29879;BME280;16752;53.364;-1.488;2023-03-19T12:40:42;100287.19;;;20.24;29.17
29879;BME280;16752;53.364;-1.488;2023-03-19T12:46:36;100330.09;;;20.37;30.00
29879;BME280;16752;53.364;-1.488;2023-03-19T12:52:22;100329.91;;;19.64;31.45
29879;BME280;16752;53.364;-1.488;2023-03-19T12:58:32;100358.50;;;19.36;31.19
29879;BME280;16752;53.364;-1.488;2023-03-19T13:01:36;100345.47;;;19.25;31.74
29879;BME280;16752;53.364;-1.488;2023-03-19T13:04:26;100315.47;;;19.33;31.18
29879;BME280;16752;53.364;-1.488;2023-03-19T13:07:19;100277.03;;;19.11;32.15
29879;BME280;16752;53.364;-1.488;2023-03-19T13:10:13;100240.66;;;18.59;32.63
29879;BME280;16752;53.364;-1.488;2023-03-19T13:16:26;100273.47;;;21.25;28.59
29879;BME280;16752;53.364;-1.488;2023-03-19T13:22:19;100272.13;;;21.37;26.86
29879;BME280;16752;53.364;-1.488;2023-03-19T13:25:05;100349.31;;;23.00;26.56
29879;BME280;16752;53.364;-1.488;2023-03-19T13:27:53;100282.69;;;23.43;25.27
29879;BME280;16752;53.364;-1.488;2023-03-19T13:30:37;100235.81;;;22.73;25.71
29879;BME280;16752;53.364;-1.488;2023-03-19T13:33:25;100227.72;;;21.83;26.16
29879;BME280;16752;53.364;-1.488;2023-03-19T13:36:15;100351.38;;;19.11;30.67
29879;BME280;16752;53.364;-1.488;2023-03-19T13:39:00;100309.53;;;20.48;29.59
29879;BME280;16752;53.364;-1.488;2023-03-19T13:41:49;100357.75;;;21.01;29.68
29879;BME280;16752;53.364;-1.488;2023-03-19T13:44:50;100279.38;;;21.04;27.02
29879;BME280;16752;53.364;-1.488;2023-03-19T13:47:43;100318.72;;;21.80;27.94
29879;BME280;16752;53.364;-1.488;2023-03-19T13:50:28;100309.38;;;20.41;28.50
29879;BME280;16752;53.364;-1.488;2023-03-19T13:53:32;100292.50;;;21.05;27.68
29879;BME280;16752;53.364;-1.488;2023-03-19T13:56:21;100367.00;;;22.78;27.20
29879;BME280;16752;53.364;-1.488;2023-03-19T13:59:27;100295.34;;;20.96;27.00
29879;BME280;16752;53.364;-1.488;2023-03-19T14:05:19;100302.22;;;21.46;27.93
29879;BME280;16752;53.364;-1.488;2023-03-19T14:08:27;100379.78;;;22.14;26.73
29879;BME280;16752;53.364;-1.488;2023-03-19T14:11:34;100344.34;;;23.27;25.42
29879;BME280;16752;53.364;-1.488;2023-03-19T14:14:32;100264.56;;;22.71;25.38
29879;BME280;16752;53.364;-1.488;2023-03-19T14:17:24;100254.97;;;22.77;24.97
29879;BME280;16752;53.364;-1.488;2023-03-19T14:30:34;100325.56;;;23.64;24.64
29879;BME280;16752;53.364;-1.488;2023-03-19T14:40:39;100236.50;;;25.12;22.25
29879;BME280;16752;53.364;-1.488;2023-03-19T14:53:18;100303.00;;;24.46;22.07
29879;BME280;16752;53.364;-1.488;2023-03-19T14:56:24;100303.69;;;23.31;23.47
29879;BME280;16752;53.364;-1.488;2023-03-19T14:59:19;100289.06;;;25.06;22.78
29879;BME280;16752;53.364;-1.488;2023-03-19T15:02:44;100358.16;;;25.73;22.40
29879;BME280;16752;53.364;-1.488;2023-03-19T15:06:14;100308.72;;;25.54;21.52
29879;BME280;16752;53.364;-1.488;2023-03-19T15:08:59;100300.56;;;24.08;22.57
29879;BME280;16752;53.364;-1.488;2023-03-19T15:17:40;100344.63;;;23.32;24.32
29879;BME280;16752;53.364;-1.488;2023-03-19T15:20:35;100317.69;;;23.18;24.10
29879;BME280;16752;53.364;-1.488;2023-03-19T15:23:31;100334.56;;;22.44;24.60
29879;BME280;16752;53.364;-1.488;2023-03-19T15:26:49;100298.97;;;21.27;27.16
29879;BME280;16752;53.364;-1.488;2023-03-19T15:29:33;100305.13;;;21.28;26.29
29879;BME280;16752;53.364;-1.488;2023-03-19T15:32:38;100292.75;;;20.63;27.97
29879;BME280;16752;53.364;-1.488;2023-03-19T15:35:33;100238.75;;;19.72;30.16
29879;BME280;16752;53.364;-1.488;2023-03-19T15:38:19;100228.94;;;19.22;29.77
29879;BME280;16752;53.364;-1.488;2023-03-19T15:41:11;100388.88;;;20.68;29.60
29879;BME280;16752;53.364;-1.488;2023-03-19T15:43:56;100312.56;;;19.18;30.57
29879;BME280;16752;53.364;-1.488;2023-03-19T15:46:43;100312.78;;;17.00;34.13
29879;BME280;16752;53.364;-1.488;2023-03-19T15:49:35;100255.91;;;17.68;33.14
29879;BME280;16752;53.364;-1.488;2023-03-19T15:52:22;100313.25;;;18.94;32.07
29879;BME280;16752;53.364;-1.488;2023-03-19T15:55:08;100399.53;;;19.68;31.93
29879;BME280;16752;53.364;-1.488;2023-03-19T15:57:56;100333.25;;;17.99;33.87
29879;BME280;16752;53.364;-1.488;2023-03-19T16:00:48;100341.22;;;19.66;30.79
29879;BME280;16752;53.364;-1.488;2023-03-19T16:09:39;100260.50;;;18.29;31.98
29879;BME280;16752;53.364;-1.488;2023-03-19T16:12:40;100414.28;;;18.75;31.83
29879;BME280;16752;53.364;-1.488;2023-03-19T16:16:19;100379.69;;;19.28;31.77
29879;BME280;16752;53.364;-1.488;2023-03-19T16:19:52;100390.09;;;18.78;32.16
29879;BME280;16752;53.364;-1.488;2023-03-19T16:22:37;100272.38;;;17.62;32.33
29879;BME280;16752;53.364;-1.488;2023-03-19T16:25:24;100362.72;;;17.22;34.01
29879;BME280;16752;53.364;-1.488;2023-03-19T16:28:18;100420.41;;;17.38;34.55
29879;BME280;16752;53.364;-1.488;2023-03-19T16:34:55;100388.78;;;17.64;33.74
29879;BME280;16752;53.364;-1.488;2023-03-19T16:37:52;100400.47;;;18.08;33.23
29879;BME280;16752;53.364;-1.488;2023-03-19T16:41:15;100408.28;;;17.26;34.07
29879;BME280;16752;53.364;-1.488;2023-03-19T16:44:11;100281.78;;;17.20;33.04
29879;BME280;16752;53.364;-1.488;2023-03-19T16:46:58;100406.38;;;16.70;34.59
29879;BME280;16752;53.364;-1.488;2023-03-19T16:49:58;100405.56;;;17.92;33.33
29879;BME280;16752;53.364;-1.488;2023-03-19T17:04:58;100411.44;;;18.41;32.39
29879;BME280;16752;53.364;-1.488;2023-03-19T17:08:14;100263.56;;;16.50;33.58
29879;BME280;16752;53.364;-1.488;2023-03-19T17:11:02;100329.81;;;17.71;32.83
29879;BME280;16752;53.364;-1.488;2023-03-19T17:14:21;100319.31;;;17.42;33.12
29879;BME280;16752;53.364;-1.488;2023-03-19T17:17:50;100259.59;;;16.93;33.61
29879;BME280;16752;53.364;-1.488;2023-03-19T17:20:56;100256.84;;;16.46;34.30
29879;BME280;16752;53.364;-1.488;2023-03-19T17:24:11;100422.84;;;17.59;34.04
29879;BME280;16752;53.364;-1.488;2023-03-19T17:27:22;100404.00;;;16.67;35.77
29879;BME280;16752;53.364;-1.488;2023-03-19T17:41:12;100244.63;;;16.26;35.54
29879;BME280;16752;53.364;-1.488;2023-03-19T17:44:15;100413.28;;;17.38;35.25
29879;BME280;16752;53.364;-1.488;2023-03-19T17:47:28;100331.59;;;16.68;35.04
29879;BME280;16752;53.364;-1.488;2023-03-19T17:50:42;100424.28;;;17.34;35.56
29879;BME280;16752;53.364;-1.488;2023-03-19T17:57:23;100266.56;;;14.98;37.81
29879;BME280;16752;53.364;-1.488;2023-03-19T18:03:35;100433.97;;;16.96;36.77
29879;BME280;16752;53.364;-1.488;2023-03-19T18:10:35;100373.38;;;16.93;35.80
29879;BME280;16752;53.364;-1.488;2023-03-19T18:17:41;100426.78;;;17.45;35.90
29879;BME280;16752;53.364;-1.488;2023-03-19T18:21:02;100257.25;;;15.65;38.21